createdAt,value
2022-07-25T00:02:02.838Z,20.53
2022-07-25T00:04:31.405Z,20.55
2022-07-25T00:06:59.442Z,20.48
2022-07-25T00:09:27.458Z,20.37
2022-07-25T00:11:55.435Z,20.24
2022-07-25T00:14:23.114Z,20.08
2022-07-25T00:16:52.848Z,20.08
2022-07-25T00:19:20.692Z,20.10
2022-07-25T00:21:48.732Z,20.09
2022-07-25T00:24:16.380Z,20.08
2022-07-25T00:26:44.483Z,20.01
2022-07-25T00:29:12.247Z,20.02
2022-07-25T00:31:40.450Z,20.04
2022-07-25T00:34:09.934Z,20.02
2022-07-25T00:36:38.566Z,20.05
2022-07-25T00:39:06.282Z,19.99
2022-07-25T00:41:34.297Z,19.98
2022-07-25T00:44:02.017Z,19.91
2022-07-25T00:46:30.067Z,19.82
2022-07-25T00:48:59.130Z,19.79
2022-07-25T00:51:28.673Z,19.77
2022-07-25T00:53:58.390Z,19.78
2022-07-25T00:56:26.418Z,19.76
2022-07-25T00:58:54.070Z,19.74
2022-07-25T01:01:22.244Z,19.71
2022-07-25T01:03:49.966Z,19.64
2022-07-25T01:06:18.569Z,19.60
2022-07-25T01:08:48.021Z,19.56
2022-07-25T01:11:17.060Z,19.55
2022-07-25T01:13:44.716Z,19.52
2022-07-25T01:16:12.973Z,19.50
2022-07-25T01:18:40.760Z,19.45
2022-07-25T01:21:10.242Z,19.43
2022-07-25T01:23:37.991Z,19.39
2022-07-25T01:26:06.132Z,19.24
2022-07-25T01:28:33.869Z,19.18
2022-07-25T01:31:02.146Z,19.15
2022-07-25T01:33:29.829Z,19.13
2022-07-25T01:35:58.107Z,19.14
2022-07-25T01:38:27.347Z,19.15
2022-07-25T01:40:55.526Z,19.17
2022-07-25T01:43:23.182Z,19.13
2022-07-25T01:45:51.735Z,19.12
2022-07-25T01:48:19.966Z,19.12
2022-07-25T01:50:48.210Z,19.08
2022-07-25T01:53:16.751Z,19.05
2022-07-25T01:55:47.627Z,19.02
2022-07-25T01:58:15.299Z,19.00
2022-07-25T02:00:43.365Z,18.85
2022-07-25T02:03:28.918Z,18.67
2022-07-25T02:05:56.794Z,18.44
2022-07-25T02:08:24.473Z,18.17
2022-07-25T02:10:54.151Z,18.25
2022-07-25T02:13:22.343Z,18.29
2022-07-25T02:15:51.152Z,18.28
2022-07-25T02:18:19.256Z,18.41
2022-07-25T02:20:47.565Z,18.38
2022-07-25T02:23:15.245Z,18.41
2022-07-25T02:25:43.420Z,18.31
2022-07-25T02:28:13.202Z,18.30
2022-07-25T02:30:40.951Z,18.33
2022-07-25T02:33:08.728Z,18.40
2022-07-25T02:35:36.608Z,18.12
2022-07-25T02:38:04.750Z,17.74
2022-07-25T02:40:32.499Z,17.64
2022-07-25T02:43:00.174Z,17.62
2022-07-25T02:45:29.171Z,17.65
2022-07-25T02:47:57.518Z,17.77
2022-07-25T02:50:25.168Z,17.87
2022-07-25T02:52:53.146Z,17.83
2022-07-25T02:55:20.901Z,17.90
2022-07-25T02:57:48.579Z,17.93
2022-07-25T03:00:17.606Z,17.89
2022-07-25T03:02:47.792Z,17.72
2022-07-25T03:05:17.468Z,17.83
2022-07-25T03:07:46.444Z,17.77
2022-07-25T03:10:15.245Z,17.79
2022-07-25T03:12:45.038Z,17.83
2022-07-25T03:15:13.956Z,17.87
2022-07-25T03:17:42.119Z,17.86
2022-07-25T03:20:11.792Z,17.87
2022-07-25T03:22:40.066Z,17.91
2022-07-25T03:25:15.950Z,17.82
2022-07-25T03:27:50.676Z,17.71
2022-07-25T03:30:18.458Z,17.83
2022-07-25T03:32:46.964Z,17.90
2022-07-25T03:35:16.468Z,17.93
2022-07-25T03:37:44.219Z,17.99
2022-07-25T03:40:13.106Z,18.03
2022-07-25T03:42:42.006Z,18.07
2022-07-25T03:45:10.924Z,18.08
2022-07-25T03:47:38.982Z,18.10
2022-07-25T03:50:07.178Z,18.14
2022-07-25T03:52:38.683Z,18.17
2022-07-25T03:55:07.540Z,18.19
2022-07-25T03:57:35.703Z,18.21
2022-07-25T04:00:03.680Z,18.17
2022-07-25T04:02:33.632Z,18.17
2022-07-25T04:05:01.327Z,18.18
2022-07-25T04:07:29.029Z,18.23
2022-07-25T04:09:58.070Z,18.23
2022-07-25T04:12:25.790Z,18.26
2022-07-25T04:14:53.735Z,18.36
2022-07-25T04:17:21.460Z,18.43
2022-07-25T04:19:49.846Z,18.29
2022-07-25T04:22:17.553Z,18.16
2022-07-25T04:24:45.679Z,18.03
2022-07-25T04:27:14.743Z,18.10
2022-07-25T04:29:43.201Z,18.21
2022-07-25T04:32:10.918Z,18.22
2022-07-25T04:34:38.938Z,18.26
2022-07-25T04:37:06.759Z,18.37
2022-07-25T04:39:35.010Z,18.45
2022-07-25T04:42:02.699Z,18.50
2022-07-25T04:44:32.226Z,18.50
2022-07-25T04:46:59.858Z,18.60
2022-07-25T04:49:27.968Z,18.68
2022-07-25T04:51:55.614Z,18.79
2022-07-25T04:54:23.309Z,18.89
2022-07-25T04:56:50.959Z,18.96
2022-07-25T04:59:19.051Z,19.14
2022-07-25T05:01:48.323Z,19.28
2022-07-25T05:04:15.993Z,19.22
2022-07-25T05:06:43.703Z,19.45
2022-07-25T05:09:11.872Z,19.55
2022-07-25T05:11:43.683Z,19.67
2022-07-25T05:14:14.717Z,19.81
2022-07-25T05:16:42.539Z,19.92
2022-07-25T05:19:12.051Z,20.09
2022-07-25T05:21:39.710Z,20.21
2022-07-25T05:24:08.583Z,20.36
2022-07-25T05:26:36.611Z,20.52
2022-07-25T05:29:04.817Z,20.58
2022-07-25T05:31:32.524Z,20.76
2022-07-25T05:34:00.355Z,20.91
2022-07-25T05:36:29.485Z,21.07
2022-07-25T05:38:57.692Z,21.20
2022-07-25T05:41:25.418Z,21.33
2022-07-25T05:43:53.183Z,21.47
2022-07-25T05:46:21.623Z,21.54
2022-07-25T05:48:49.431Z,21.70
2022-07-25T05:51:17.094Z,21.86
2022-07-25T05:53:46.188Z,21.99
2022-07-25T05:56:14.131Z,22.17
2022-07-25T05:58:42.365Z,22.35
2022-07-25T06:01:13.650Z,22.46
2022-07-25T06:03:41.505Z,22.63
2022-07-25T06:06:09.781Z,22.71
2022-07-25T06:08:37.634Z,22.87
2022-07-25T06:11:08.315Z,22.96
2022-07-25T06:13:37.235Z,23.11
2022-07-25T06:16:06.462Z,23.31
2022-07-25T06:18:34.189Z,23.32
2022-07-25T06:21:02.175Z,23.47
2022-07-25T06:23:29.835Z,23.68
2022-07-25T06:25:58.458Z,23.81
2022-07-25T06:28:27.493Z,24.00
2022-07-25T06:30:56.654Z,24.05
2022-07-25T06:33:24.331Z,24.16
2022-07-25T06:35:52.094Z,24.31
2022-07-25T06:38:19.767Z,24.48
2022-07-25T06:40:47.965Z,24.64
2022-07-25T06:43:15.625Z,24.81
2022-07-25T06:45:47.499Z,25.03
2022-07-25T06:48:15.411Z,25.13
2022-07-25T06:50:43.143Z,25.38
2022-07-25T06:53:10.840Z,25.60
2022-07-25T06:55:38.592Z,25.78
2022-07-25T06:58:06.318Z,25.93
2022-07-25T07:00:34.457Z,26.05
2022-07-25T07:03:04.215Z,26.22
2022-07-25T07:05:33.879Z,26.39
2022-07-25T07:08:02.061Z,26.52
2022-07-25T07:10:29.900Z,26.64
2022-07-25T07:13:07.684Z,26.85
2022-07-25T07:15:36.100Z,26.94
2022-07-25T07:18:05.531Z,27.15
2022-07-25T07:20:33.294Z,27.20
2022-07-25T07:23:00.939Z,27.41
2022-07-25T07:25:30.736Z,27.22
2022-07-25T07:27:59.060Z,27.26
2022-07-25T07:30:58.463Z,27.69
2022-07-25T07:33:16.912Z,27.98
2022-07-25T07:35:45.075Z,28.06
2022-07-25T07:38:12.988Z,28.33
2022-07-25T07:40:40.689Z,28.53
2022-07-25T07:43:08.415Z,28.78
2022-07-25T07:45:36.168Z,29.01
2022-07-25T07:48:03.890Z,29.15
2022-07-25T07:50:33.565Z,29.15
2022-07-25T07:53:01.449Z,29.28
2022-07-25T07:55:49.228Z,29.31
2022-07-25T07:58:19.071Z,29.28
2022-07-25T08:00:48.423Z,29.57
2022-07-25T08:03:20.682Z,29.87
2022-07-25T08:05:52.096Z,29.90
2022-07-25T08:08:19.871Z,30.23
2022-07-25T08:10:49.461Z,30.40
2022-07-25T08:13:19.043Z,30.61
2022-07-25T08:15:48.841Z,30.82
2022-07-25T08:18:18.010Z,30.84
2022-07-25T08:20:46.770Z,31.22
2022-07-25T08:23:16.189Z,31.10
2022-07-25T08:25:45.158Z,30.80
2022-07-25T08:28:13.677Z,31.02
2022-07-25T08:30:42.742Z,31.08
2022-07-25T08:33:13.227Z,30.80
2022-07-25T08:35:41.944Z,31.11
2022-07-25T08:38:11.523Z,31.06
2022-07-25T08:40:40.687Z,31.14
2022-07-25T08:43:12.807Z,31.65
2022-07-25T08:45:45.795Z,31.90
2022-07-25T08:48:14.000Z,32.17
2022-07-25T08:50:42.104Z,32.43
2022-07-25T08:53:32.033Z,32.81
2022-07-25T08:56:00.166Z,31.91
2022-07-25T08:58:27.836Z,32.12
2022-07-25T09:00:55.824Z,32.52
2022-07-25T09:03:23.508Z,32.23
2022-07-25T09:05:52.530Z,32.52
2022-07-25T09:08:20.149Z,32.68
2022-07-25T09:10:50.085Z,32.79
2022-07-25T09:13:20.535Z,32.33
2022-07-25T09:15:50.939Z,32.83
2022-07-25T09:18:23.127Z,33.10
2022-07-25T09:20:53.231Z,32.45
2022-07-25T09:23:29.765Z,32.83
2022-07-25T09:26:03.431Z,32.46
2022-07-25T09:28:32.740Z,32.65
2022-07-25T09:31:02.423Z,32.61
2022-07-25T09:33:30.701Z,32.47
2022-07-25T09:35:58.737Z,32.44
2022-07-25T09:38:27.287Z,32.84
2022-07-25T09:40:57.015Z,33.08
2022-07-25T09:43:35.947Z,33.00
2022-07-25T09:46:05.487Z,33.17
2022-07-25T09:48:33.326Z,33.22
2022-07-25T09:51:01.519Z,33.52
2022-07-25T09:53:29.897Z,33.97
2022-07-25T09:55:57.841Z,34.40
2022-07-25T09:58:26.574Z,34.10
2022-07-25T10:01:01.735Z,34.16
2022-07-25T10:03:44.606Z,34.13
2022-07-25T10:06:21.337Z,33.98
2022-07-25T10:08:50.383Z,33.67
2022-07-25T10:11:23.924Z,34.63
2022-07-25T10:13:52.451Z,34.53
2022-07-25T10:16:21.583Z,34.02
2022-07-25T10:18:53.851Z,33.80
2022-07-25T10:21:27.958Z,33.84
2022-07-25T10:24:01.294Z,33.75
2022-07-25T10:26:29.297Z,33.67
2022-07-25T10:28:57.367Z,33.73
2022-07-25T10:31:27.801Z,34.70
2022-07-25T10:33:58.846Z,34.74
2022-07-25T10:36:30.159Z,35.17
2022-07-25T10:39:00.533Z,35.47
2022-07-25T10:41:29.892Z,35.04
2022-07-25T10:44:01.909Z,35.24
2022-07-25T10:46:32.478Z,35.18
2022-07-25T10:49:07.237Z,35.89
2022-07-25T10:51:41.476Z,35.00
2022-07-25T10:54:15.169Z,35.55
2022-07-25T10:56:53.499Z,35.90
2022-07-25T10:59:29.058Z,36.03
2022-07-25T11:01:57.013Z,35.59
2022-07-25T11:04:26.209Z,35.21
2022-07-25T11:06:53.964Z,35.50
2022-07-25T11:09:27.352Z,35.04
2022-07-25T11:11:57.215Z,34.87
2022-07-25T11:14:31.157Z,34.84
2022-07-25T11:16:59.203Z,35.41
2022-07-25T11:19:30.556Z,35.80
2022-07-25T11:22:00.143Z,35.34
2022-07-25T11:24:36.848Z,35.48
2022-07-25T11:27:08.474Z,35.29
2022-07-25T11:29:40.492Z,35.51
2022-07-25T11:32:11.941Z,34.99
2022-07-25T11:34:44.262Z,34.62
2022-07-25T11:37:14.407Z,34.78
2022-07-25T11:39:45.504Z,35.15
2022-07-25T11:42:16.318Z,35.72
2022-07-25T11:44:47.829Z,35.35
2022-07-25T11:47:27.531Z,35.27
2022-07-25T11:49:59.396Z,35.28
2022-07-25T11:52:29.826Z,35.55
2022-07-25T11:54:59.576Z,34.72
2022-07-25T11:57:29.439Z,34.81
2022-07-25T11:59:57.839Z,34.45
2022-07-25T12:02:27.447Z,34.57
2022-07-25T12:04:58.986Z,34.43
2022-07-25T12:07:41.363Z,34.62
2022-07-25T12:10:11.666Z,34.50
2022-07-25T12:12:44.674Z,34.80
2022-07-25T12:15:13.905Z,34.64
2022-07-25T12:17:43.194Z,34.13
2022-07-25T12:20:17.514Z,33.96
2022-07-25T12:22:45.677Z,34.26
2022-07-25T12:25:13.928Z,34.15
2022-07-25T12:27:41.708Z,33.98
2022-07-25T12:30:11.999Z,33.92
2022-07-25T12:32:40.216Z,34.40
2022-07-25T12:35:09.863Z,34.50
2022-07-25T12:37:39.246Z,34.28
2022-07-25T12:40:08.148Z,34.86
2022-07-25T12:42:35.967Z,34.43
2022-07-25T12:45:04.380Z,34.77
2022-07-25T12:47:32.363Z,34.38
2022-07-25T12:50:00.014Z,34.67
2022-07-25T12:52:27.905Z,35.05
2022-07-25T12:54:57.502Z,34.99
2022-07-25T12:57:25.600Z,35.19
2022-07-25T12:59:53.343Z,34.37
2022-07-25T13:02:21.002Z,34.90
2022-07-25T13:04:48.986Z,34.75
2022-07-25T13:07:17.375Z,35.08
2022-07-25T13:12:35.428Z,34.97
2022-07-25T13:15:03.766Z,35.29
2022-07-25T13:17:32.461Z,35.37
2022-07-25T13:20:00.501Z,35.04
2022-07-25T13:22:28.804Z,34.73
2022-07-25T13:24:57.135Z,35.16
2022-07-25T13:27:24.801Z,35.01
2022-07-25T13:29:55.082Z,35.10
2022-07-25T13:32:22.943Z,34.92
2022-07-25T13:34:51.085Z,34.55
2022-07-25T13:37:18.887Z,34.88
2022-07-25T13:39:47.196Z,35.15
2022-07-25T13:42:14.838Z,35.35
2022-07-25T13:44:42.673Z,35.17
2022-07-25T13:47:11.758Z,35.24
2022-07-25T13:49:40.623Z,35.23
2022-07-25T13:52:08.328Z,35.06
2022-07-25T13:54:36.014Z,34.97
2022-07-25T13:57:04.344Z,35.03
2022-07-25T13:59:32.057Z,35.53
2022-07-25T14:01:59.840Z,35.69
2022-07-25T14:04:29.110Z,35.86
2022-07-25T14:06:58.312Z,35.32
2022-07-25T14:09:26.280Z,35.31
2022-07-25T14:11:54.002Z,34.91
2022-07-25T14:14:21.973Z,35.20
2022-07-25T14:16:49.849Z,35.35
2022-07-25T14:19:18.591Z,35.38
2022-07-25T14:21:47.723Z,35.52
2022-07-25T14:24:15.564Z,35.59
2022-07-25T14:26:43.199Z,35.35
2022-07-25T14:29:12.200Z,34.97
2022-07-25T14:31:40.898Z,35.37
2022-07-25T14:34:09.096Z,35.22
2022-07-25T14:36:37.073Z,35.07
2022-07-25T14:39:06.752Z,35.28
2022-07-25T14:41:35.199Z,35.43
2022-07-25T14:44:02.849Z,35.61
2022-07-25T14:46:31.270Z,35.62
2022-07-25T14:48:59.401Z,36.15
2022-07-25T14:51:28.562Z,36.10
2022-07-25T14:53:56.173Z,36.37
2022-07-25T14:56:25.617Z,36.03
2022-07-25T14:58:53.274Z,35.76
2022-07-25T15:01:24.299Z,35.78
2022-07-25T15:03:52.115Z,36.42
2022-07-25T15:06:19.931Z,36.79
2022-07-25T15:08:47.551Z,36.78
2022-07-25T15:11:15.176Z,36.60
2022-07-25T15:13:44.444Z,37.06
2022-07-25T15:16:13.772Z,36.37
2022-07-25T15:19:05.326Z,36.52
2022-07-25T15:21:29.086Z,36.28
2022-07-25T15:23:57.414Z,36.30
2022-07-25T15:26:25.103Z,36.46
2022-07-25T15:28:54.555Z,36.64
2022-07-25T15:31:24.281Z,36.58
2022-07-25T15:33:54.311Z,36.25
2022-07-25T15:36:25.811Z,36.10
2022-07-25T15:38:56.950Z,36.06
2022-07-25T15:41:24.592Z,36.15
2022-07-25T15:43:52.262Z,35.86
2022-07-25T15:46:21.472Z,35.83
2022-07-25T15:48:49.744Z,35.61
2022-07-25T15:51:17.779Z,35.89
2022-07-25T15:53:46.054Z,36.12
2022-07-25T15:56:15.855Z,36.35
2022-07-25T15:58:44.071Z,36.12
2022-07-25T16:01:12.277Z,36.09
2022-07-25T16:03:41.382Z,35.77
2022-07-25T16:06:09.120Z,35.49
2022-07-25T16:08:37.169Z,35.38
2022-07-25T16:11:05.784Z,35.02
2022-07-25T16:13:33.466Z,34.92
2022-07-25T16:16:01.151Z,34.98
2022-07-25T16:18:28.857Z,34.61
2022-07-25T16:20:58.243Z,34.83
2022-07-25T16:23:28.057Z,34.58
2022-07-25T16:25:56.251Z,34.56
2022-07-25T16:28:23.928Z,34.36
2022-07-25T16:30:52.451Z,34.73
2022-07-25T16:33:20.139Z,34.57
2022-07-25T16:35:48.241Z,34.33
2022-07-25T16:38:17.807Z,34.36
2022-07-25T16:40:45.884Z,34.36
2022-07-25T16:43:13.498Z,34.10
2022-07-25T16:45:43.502Z,34.17
2022-07-25T16:48:11.690Z,34.20
2022-07-25T16:50:39.559Z,33.98
2022-07-25T16:53:07.498Z,33.88
2022-07-25T16:55:36.777Z,33.80
2022-07-25T16:58:04.455Z,33.69
2022-07-25T17:00:32.129Z,33.77
2022-07-25T17:03:00.444Z,33.94
2022-07-25T17:05:28.112Z,33.73
2022-07-25T17:07:59.579Z,33.90
2022-07-25T17:10:27.706Z,33.61
2022-07-25T17:12:57.506Z,33.53
2022-07-25T17:15:25.210Z,33.28
2022-07-25T17:17:53.479Z,33.48
2022-07-25T17:20:21.164Z,33.01
2022-07-25T17:22:49.100Z,33.09
2022-07-25T17:25:16.716Z,33.03
2022-07-25T17:27:45.234Z,32.97
2022-07-25T17:30:14.635Z,32.97
2022-07-25T17:32:42.957Z,32.88
2022-07-25T17:35:10.745Z,33.00
2022-07-25T17:37:38.889Z,32.83
2022-07-25T17:40:07.626Z,32.60
2022-07-25T17:42:35.594Z,32.86
2022-07-25T17:45:06.850Z,32.77
2022-07-25T17:47:35.988Z,32.67
2022-07-25T17:50:04.492Z,32.81
2022-07-25T17:52:32.430Z,32.81
2022-07-25T17:55:00.111Z,32.79
2022-07-25T17:57:28.354Z,32.58
2022-07-25T17:59:56.002Z,32.61
2022-07-25T18:02:24.254Z,32.42
2022-07-25T18:04:54.681Z,32.33
2022-07-25T18:07:23.172Z,32.36
2022-07-25T18:09:50.786Z,32.45
2022-07-25T18:12:18.408Z,32.57
2022-07-25T18:14:46.080Z,32.50
2022-07-25T18:17:14.335Z,32.48
2022-07-25T18:19:41.953Z,32.39
2022-07-25T18:22:11.028Z,32.29
2022-07-25T18:24:38.653Z,32.19
2022-07-25T18:27:06.397Z,32.19
2022-07-25T18:29:37.020Z,32.15
2022-07-25T18:32:04.934Z,32.09
2022-07-25T18:34:32.787Z,31.99
2022-07-25T18:37:00.462Z,31.91
2022-07-25T18:39:29.516Z,31.83
2022-07-25T18:41:57.159Z,31.71
2022-07-25T18:44:24.861Z,31.61
2022-07-25T18:46:52.632Z,31.49
2022-07-25T18:49:21.241Z,31.36
2022-07-25T18:51:48.908Z,31.23
2022-07-25T18:54:17.019Z,31.12
2022-07-25T18:56:45.982Z,31.00
2022-07-25T18:59:14.468Z,30.84
2022-07-25T19:01:42.213Z,30.70
2022-07-25T19:04:10.306Z,30.57
2022-07-25T19:06:38.352Z,30.45
2022-07-25T19:09:06.049Z,30.30
2022-07-25T19:11:37.638Z,30.15
2022-07-25T19:14:10.924Z,30.03
2022-07-25T19:16:38.775Z,29.95
2022-07-25T19:19:06.972Z,29.85
2022-07-25T19:21:34.628Z,29.72
2022-07-25T19:24:02.600Z,29.62
2022-07-25T19:26:30.353Z,29.51
2022-07-25T19:28:58.678Z,29.35
2022-07-25T19:31:27.770Z,29.17
2022-07-25T19:33:56.373Z,29.20
2022-07-25T19:36:24.073Z,29.29
2022-07-25T19:38:52.037Z,29.40
2022-07-25T19:41:19.694Z,29.45
2022-07-25T19:43:47.407Z,29.41
2022-07-25T19:46:15.437Z,29.43
2022-07-25T19:48:44.722Z,29.45
2022-07-25T19:51:12.744Z,29.33
2022-07-25T19:53:40.512Z,29.15
2022-07-25T19:56:09.160Z,29.02
2022-07-25T19:58:39.098Z,28.79
2022-07-25T20:01:11.298Z,28.65
2022-07-25T20:03:39.026Z,28.48
2022-07-25T20:06:08.984Z,28.34
2022-07-25T20:08:39.275Z,28.25
2022-07-25T20:11:07.306Z,28.20
2022-07-25T20:13:35.542Z,28.03
2022-07-25T20:16:03.843Z,27.91
2022-07-25T20:18:32.671Z,27.83
2022-07-25T20:21:00.373Z,27.69
2022-07-25T20:23:30.140Z,27.52
2022-07-25T20:25:58.331Z,27.33
2022-07-25T20:28:26.088Z,27.24
2022-07-25T20:30:55.774Z,26.07
2022-07-25T20:33:26.949Z,23.56
2022-07-25T20:35:54.833Z,23.22
2022-07-25T20:38:22.804Z,23.29
2022-07-25T20:40:53.396Z,23.38
2022-07-25T20:43:21.735Z,23.39
2022-07-25T20:45:50.250Z,23.38
2022-07-25T20:48:18.249Z,23.50
2022-07-25T20:50:45.991Z,23.57
2022-07-25T20:53:13.709Z,23.63
2022-07-25T20:55:41.858Z,23.62
2022-07-25T20:58:10.879Z,23.50
2022-07-25T21:00:39.146Z,23.47
2022-07-25T21:03:08.050Z,23.64
2022-07-25T21:05:37.809Z,23.63
2022-07-25T21:08:06.163Z,23.66
2022-07-25T21:10:34.240Z,23.68
2022-07-25T21:13:02.295Z,23.78
2022-07-25T21:15:31.960Z,23.70
2022-07-25T21:17:59.821Z,23.64
2022-07-25T21:20:28.118Z,23.77
2022-07-25T21:22:56.250Z,23.80
2022-07-25T21:25:24.151Z,23.75
2022-07-25T21:27:51.811Z,23.63
2022-07-25T21:30:19.663Z,23.66
2022-07-25T21:32:48.719Z,23.51
2022-07-25T21:35:18.118Z,23.25
2022-07-25T21:37:46.059Z,23.30
2022-07-25T21:40:13.930Z,23.31
2022-07-25T21:42:43.446Z,23.20
2022-07-25T21:45:12.167Z,23.20
2022-07-25T21:47:39.873Z,23.15
2022-07-25T21:50:28.463Z,22.97
2022-07-25T21:52:56.433Z,22.74
2022-07-25T21:55:24.623Z,22.79
2022-07-25T21:57:52.838Z,22.60
2022-07-25T22:00:21.342Z,22.58
2022-07-25T22:02:49.451Z,22.60
2022-07-25T22:05:20.301Z,22.83
2022-07-25T22:07:48.961Z,22.70
2022-07-25T22:10:18.984Z,22.53
2022-07-25T22:12:47.726Z,22.69
2022-07-25T22:15:16.747Z,22.50
2022-07-25T22:17:49.724Z,22.78
2022-07-25T22:20:20.043Z,22.50
2022-07-25T22:22:47.953Z,22.60
2022-07-25T22:25:16.260Z,22.73
2022-07-25T22:27:44.099Z,22.72
2022-07-25T22:30:17.951Z,22.76
2022-07-25T22:32:46.457Z,22.32
2022-07-25T22:35:14.695Z,22.50
2022-07-25T22:37:43.873Z,22.37
2022-07-25T22:40:13.675Z,22.48
2022-07-25T22:42:41.809Z,22.51
2022-07-25T22:45:10.690Z,22.53
2022-07-25T22:47:39.347Z,22.59
2022-07-25T22:50:08.974Z,22.38
2022-07-25T22:52:36.955Z,22.37
2022-07-25T22:55:06.846Z,22.45
2022-07-25T22:57:37.095Z,22.50
2022-07-25T23:00:08.127Z,22.36
2022-07-25T23:02:35.929Z,22.25
2022-07-25T23:05:03.739Z,22.35
2022-07-25T23:07:32.122Z,22.39
2022-07-25T23:09:59.970Z,22.54
2022-07-25T23:12:29.442Z,22.59
2022-07-25T23:14:57.075Z,22.62
2022-07-25T23:17:25.335Z,22.65
2022-07-25T23:19:54.490Z,22.65
2022-07-25T23:22:23.654Z,22.67
2022-07-25T23:24:51.591Z,22.55
2022-07-25T23:27:19.504Z,22.58
2022-07-25T23:29:48.490Z,22.60
2022-07-25T23:32:16.557Z,22.63
2022-07-25T23:34:44.181Z,22.59
2022-07-25T23:37:12.229Z,22.55
2022-07-25T23:39:39.839Z,22.57
2022-07-25T23:42:07.655Z,22.58
2022-07-25T23:44:36.534Z,22.54
2022-07-25T23:47:10.138Z,22.58
2022-07-25T23:49:38.592Z,22.59
2022-07-25T23:52:06.623Z,22.57
2022-07-25T23:54:34.850Z,22.51
2022-07-25T23:57:03.371Z,22.50
2022-07-25T23:59:31.134Z,22.45
